Terminal Aerodrome Forecast
Issued by NWS

Home | Current Version | Previous Version | Text Only | Print | Product List | Glossary On
Versions: 1 2 3 4 5 6 7 8 9 10 11 12 13 14 15
000
FTUS45 KREV 051740
TAFRNO
TAF
KRNO 051740Z 0518/0618 35009KT P6SM SCT060 SCT180
     FM052000 31010KT P6SM -SHRA VCTS SCT060CB BKN140
      TEMPO 0521/0523 3SM TSRAGS SCT020 BKN050CB
     FM052300 29015G24KT P6SM VCSH SCT070 BKN120
     FM060100 31011KT P6SM -RA BKN050
     FM060800 32005KT P6SM VCSH BKN070 OVC100=

USA.gov is the U.S. government's official web portal to all federal, state and local government web resources and services.